createdAt,value
2018-03-26T18:49:54.029Z,24.40
2018-03-26T18:52:25.045Z,23.83
2018-03-26T18:54:56.106Z,25.17
2018-03-26T18:57:27.071Z,26.37
2018-03-26T18:59:58.035Z,26.97
2018-03-26T19:02:28.979Z,26.50
2018-03-26T19:05:00.079Z,26.63
2018-03-26T19:07:31.016Z,24.90
2018-03-26T19:10:02.041Z,25.07
2018-03-26T19:12:33.094Z,24.97
2018-03-26T19:15:04.066Z,25.37
2018-03-26T19:17:35.103Z,26.23
2018-03-26T19:20:06.178Z,25.70
2018-03-26T19:22:37.185Z,24.67
2018-03-26T19:25:08.184Z,24.33
2018-03-26T19:27:39.182Z,26.63
2018-03-26T19:30:10.235Z,25.17
2018-03-26T19:32:41.225Z,25.27
2018-03-26T19:35:12.298Z,26.60
2018-03-26T19:37:43.358Z,27.77
2018-03-26T19:40:14.421Z,27.40
2018-03-26T19:42:45.409Z,27.27
2018-03-26T19:45:16.404Z,29.10
2018-03-26T19:47:47.423Z,25.77
2018-03-26T19:50:18.470Z,26.97
2018-03-26T19:52:49.455Z,27.97
2018-03-26T19:55:20.447Z,27.70
2018-03-26T19:57:51.356Z,26.60
2018-03-26T20:00:22.288Z,27.20
2018-03-26T20:02:53.260Z,27.47
2018-03-26T20:05:24.219Z,27.63
2018-03-26T20:07:55.217Z,28.60
2018-03-26T20:10:26.215Z,26.73
2018-03-26T20:12:57.203Z,28.00
2018-03-26T20:15:28.195Z,27.93
2018-03-26T20:17:59.159Z,28.40
2018-03-26T20:20:30.111Z,29.33
2018-03-26T20:23:01.133Z,28.90
2018-03-26T20:25:32.123Z,28.50
2018-03-26T20:28:03.160Z,27.67
2018-03-26T20:30:34.171Z,28.67
2018-03-26T20:33:05.219Z,28.37
2018-03-26T20:35:36.237Z,30.87
2018-03-26T20:38:07.264Z,29.03
2018-03-26T20:40:38.316Z,28.10
2018-03-26T20:43:09.339Z,28.60
2018-03-26T20:45:40.336Z,29.50
2018-03-26T20:48:11.320Z,38.70
2018-03-26T20:50:42.361Z,28.73
2018-03-26T20:53:13.353Z,29.33
2018-03-26T20:55:44.437Z,30.77
2018-03-26T20:58:15.443Z,28.53
2018-03-26T21:00:46.445Z,29.20
2018-03-26T21:03:17.513Z,29.63
2018-03-26T21:05:48.545Z,29.63
2018-03-26T21:08:19.598Z,30.20
2018-03-26T21:10:50.658Z,29.90
2018-03-26T21:13:21.722Z,30.63
2018-03-26T21:15:52.757Z,29.87
2018-03-26T21:18:23.825Z,29.60
2018-03-26T21:20:54.881Z,30.97
2018-03-26T21:23:25.942Z,32.73
2018-03-26T21:25:57.025Z,32.13
2018-03-26T21:28:28.066Z,31.93
2018-03-26T21:30:59.153Z,31.97
2018-03-26T21:33:30.191Z,31.83
2018-03-26T21:36:01.264Z,31.53
2018-03-26T21:38:32.330Z,33.63
2018-03-26T21:41:03.398Z,31.97
2018-03-26T21:43:34.726Z,32.83
2018-03-26T21:46:05.833Z,33.10
2018-03-26T21:48:36.891Z,35.23
2018-03-26T21:51:07.953Z,36.77
2018-03-26T21:53:38.989Z,37.20
2018-03-26T21:56:10.036Z,34.67
2018-03-26T21:58:41.096Z,37.87
2018-03-26T22:01:12.164Z,37.27
2018-03-26T22:03:43.204Z,35.00
2018-03-26T22:06:14.245Z,38.90
2018-03-26T22:08:45.273Z,37.60
2018-03-26T22:11:16.349Z,39.17
2018-03-26T22:13:47.397Z,37.90
2018-03-26T22:16:18.462Z,37.77
2018-03-26T22:18:49.488Z,37.13
2018-03-26T22:21:20.545Z,38.30
2018-03-26T22:23:51.573Z,37.87
2018-03-26T22:26:22.625Z,36.87
2018-03-26T22:28:53.700Z,38.33
2018-03-26T22:31:24.737Z,37.40
2018-03-26T22:33:55.814Z,38.17
2018-03-26T22:36:26.869Z,38.07
2018-03-26T22:38:57.934Z,38.33
2018-03-26T22:41:28.973Z,39.43
2018-03-26T22:44:00.037Z,36.33
2018-03-26T22:46:31.082Z,36.90
2018-03-26T22:49:02.142Z,38.20
2018-03-26T22:51:33.170Z,38.03
2018-03-26T22:54:04.240Z,38.13
2018-03-26T22:56:35.289Z,38.97
2018-03-26T22:59:06.358Z,36.77
2018-03-26T23:01:37.383Z,38.77
2018-03-26T23:04:08.469Z,38.93
2018-03-26T23:06:39.493Z,40.63
2018-03-26T23:09:10.545Z,38.07
2018-03-26T23:11:41.598Z,41.17
2018-03-26T23:14:12.642Z,38.67
2018-03-26T23:16:43.677Z,39.40
2018-03-26T23:19:14.703Z,40.27
2018-03-26T23:21:45.770Z,39.47
2018-03-26T23:24:16.797Z,38.17
2018-03-26T23:26:47.849Z,39.07
2018-03-26T23:29:18.886Z,40.27
2018-03-26T23:31:49.961Z,40.17
2018-03-26T23:34:20.981Z,37.93
2018-03-26T23:36:52.034Z,38.83
2018-03-26T23:39:23.062Z,41.10
2018-03-26T23:41:54.113Z,40.93
2018-03-26T23:44:25.161Z,39.87
2018-03-26T23:46:56.214Z,40.80
2018-03-26T23:49:27.249Z,40.53
2018-03-26T23:51:58.311Z,48.47
2018-03-26T23:54:29.391Z,42.70
2018-03-26T23:57:00.395Z,43.10
2018-03-26T23:59:31.462Z,43.37
